Time;durP1;ratioP1;P1;durP2;ratioP2;P2;SDS_P1;SDS_P2;PMS_P1;PMS_P2;Temp;Humidity;BMP_temperature;BMP_pressure;BME280_temperature;BME280_humidity;BME280_pressure;Samples;Min_cycle;Max_cycle;Signal;HPM_P1;HPM_P2
2021/04/25 00:01:44;;;;;;;14.70;5.80;;;4.70;93.60;;;;;;10325716;28;20070;-66
2021/04/25 00:06:46;;;;;;;19.85;6.32;;;4.60;97.20;;;;;;10324041;28;20052;-66
2021/04/25 00:11:49;;;;;;;10.83;5.50;;;4.60;94.10;;;;;;10323407;28;20553;-68
2021/04/25 00:16:51;;;;;;;17.70;6.80;;;4.60;94.40;;;;;;10327952;28;20464;-66
2021/04/25 00:21:52;;;;;;;23.42;7.18;;;;;;;;;;10323435;28;20509;-67
2021/04/25 00:26:54;;;;;;;13.65;5.65;;;;;;;;;;10317732;28;20060;-67
2021/04/25 00:31:56;;;;;;;12.35;6.18;;;4.50;98.20;;;;;;10327350;28;20049;-66
2021/04/25 00:36:58;;;;;;;16.37;7.33;;;;;;;;;;10329846;28;20137;-67
2021/04/25 00:42:00;;;;;;;23.80;7.53;;;;;;;;;;10323070;28;20078;-68
2021/04/25 00:47:02;;;;;;;19.17;7.47;;;4.20;95.60;;;;;;10322022;28;20688;-66
2021/04/25 00:52:04;;;;;;;16.42;7.25;;;4.30;95.90;;;;;;10326453;28;20072;-67
2021/04/25 00:57:06;;;;;;;21.42;7.13;;;4.20;99.50;;;;;;10327928;28;20053;-66
2021/04/25 01:02:09;;;;;;;19.45;6.82;;;4.10;96.20;;;;;;10320786;28;20054;-66
2021/04/25 01:07:10;;;;;;;19.90;6.80;;;;;;;;;;10324003;28;20081;-66
2021/04/25 01:12:12;;;;;;;15.40;6.90;;;;;;;;;;10331824;28;20137;-67
2021/04/25 01:17:14;;;;;;;14.00;6.57;;;4.10;96.50;;;;;;10323005;28;20462;-67
2021/04/25 01:22:16;;;;;;;13.65;6.80;;;4.00;96.60;;;;;;10320836;28;20137;-68
2021/04/25 01:27:18;;;;;;;14.95;5.85;;;;;;;;;;10326850;28;20148;-66
2021/04/25 01:32:19;;;;;;;18.45;5.88;;;4.10;99.90;;;;;;10331523;28;20045;-66
2021/04/25 01:37:22;;;;;;;26.30;7.18;;;4.00;99.90;;;;;;10325392;28;20097;-66
2021/04/25 01:42:24;;;;;;;17.30;6.30;;;;;;;;;;10332673;28;20049;-66
2021/04/25 01:47:26;;;;;;;25.35;6.45;;;;;;;;;;10337343;28;20405;-66
2021/04/25 01:52:28;;;;;;;15.57;6.32;;;4.60;99.90;;;;;;10336103;28;20094;-65
2021/04/25 01:57:29;;;;;;;13.77;6.18;;;4.60;99.90;;;;;;10339487;28;20050;-66
2021/04/25 02:02:31;;;;;;;10.73;5.30;;;4.80;97.60;;;;;;10333921;28;20137;-66
2021/04/25 02:07:33;;;;;;;16.02;5.07;;;5.20;99.90;;;;;;10332904;28;20157;-66
2021/04/25 02:12:35;;;;;;;8.07;4.50;;;;;;;;;;10340535;28;20088;-66
2021/04/25 02:17:36;;;;;;;24.30;5.05;;;5.40;98.60;;;;;;10347099;28;20062;-67
2021/04/25 02:22:39;;;;;;;8.15;3.63;;;5.30;94.30;;;;;;10346018;28;20050;-66
2021/04/25 02:27:41;;;;;;;11.10;3.92;;;;;;;;;;10330866;28;20494;-66
2021/04/25 02:32:42;;;;;;;12.05;3.75;;;5.50;96.40;;;;;;10336646;28;20078;-67
2021/04/25 02:37:46;;;;;;;8.73;4.55;;;5.50;92.30;;;;;;10339314;28;20052;-66
2021/04/25 02:42:48;;;;;;;6.50;4.03;;;5.60;91.90;;;;;;10332755;28;20061;-66
2021/04/25 02:47:51;;;;;;;10.67;4.03;;;5.70;91.50;;;;;;10334410;28;20077;-66
2021/04/25 02:52:54;;;;;;;6.15;3.58;;;5.90;91.20;;;;;;10333670;28;20066;-66
2021/04/25 02:57:55;;;;;;;8.02;4.07;;;5.70;94.10;;;;;;10330733;28;20112;-65
2021/04/25 03:02:57;;;;;;;8.27;3.58;;;5.90;93.60;;;;;;10338427;28;20074;-66
2021/04/25 03:08:00;;;;;;;5.47;3.27;;;5.90;93.20;;;;;;10331110;28;20130;-65
2021/04/25 03:13:01;;;;;;;8.10;3.00;;;5.70;92.50;;;;;;10344640;28;20473;-66
2021/04/25 03:18:03;;;;;;;10.20;3.60;;;5.60;92.20;;;;;;10339232;28;20085;-65
2021/04/25 03:23:05;;;;;;;5.88;3.03;;;5.60;92.30;;;;;;10339606;28;20137;-65
2021/04/25 03:28:06;;;;;;;7.78;2.92;;;;;;;;;;10328219;28;20090;-67
2021/04/25 03:33:08;;;;;;;4.00;2.75;;;5.80;92.50;;;;;;10329755;28;20109;-66
2021/04/25 03:38:10;;;;;;;5.90;2.60;;;5.50;92.50;;;;;;10343935;28;20092;-65
2021/04/25 03:43:12;;;;;;;7.15;2.70;;;;;;;;;;10329670;28;20145;-66
2021/04/25 03:48:13;;;;;;;6.47;2.55;;;5.60;92.50;;;;;;10329499;28;20129;-65
2021/04/25 03:53:15;;;;;;;6.32;2.65;;;5.70;87.90;;;;;;10329014;28;20140;-65
2021/04/25 03:58:17;;;;;;;10.60;2.78;;;5.70;92.10;;;;;;10339654;28;20468;-65
2021/04/25 04:03:18;;;;;;;8.35;3.08;;;6.20;91.90;;;;;;10327074;28;20066;-65
2021/04/25 04:08:20;;;;;;;8.70;3.05;;;6.40;91.90;;;;;;10327516;28;20728;-65
2021/04/25 04:13:22;;;;;;;7.55;3.55;;;;;;;;;;10328605;28;20148;-65
2021/04/25 04:18:23;;;;;;;7.35;2.83;;;6.40;91.90;;;;;;10326751;28;20057;-65
2021/04/25 04:23:25;;;;;;;7.05;3.35;;;6.50;91.90;;;;;;10328010;28;20060;-65
2021/04/25 04:28:27;;;;;;;7.60;3.15;;;6.50;91.60;;;;;;10328032;28;20038;-66
2021/04/25 04:33:28;;;;;;;11.02;3.42;;;6.40;91.30;;;;;;10335611;28;20161;-66
2021/04/25 04:38:30;;;;;;;8.80;3.25;;;6.30;91.20;;;;;;10337884;28;20129;-65
2021/04/25 04:43:31;;;;;;;5.68;2.95;;;6.30;90.50;;;;;;10326498;28;20128;-66
2021/04/25 04:48:33;;;;;;;8.65;3.38;;;6.50;90.50;;;;;;10341120;28;20133;-65
2021/04/25 04:53:35;;;;;;;12.68;3.65;;;7.00;90.40;;;;;;10336297;28;20051;-65
2021/04/25 04:58:36;;;;;;;6.75;2.90;;;6.50;90.10;;;;;;10326886;28;20056;-65
2021/04/25 05:03:38;;;;;;;9.80;4.07;;;;;;;;;;10325650;28;20145;-65
2021/04/25 05:08:40;;;;;;;10.35;3.72;;;6.40;89.10;;;;;;10327350;28;20153;-65
2021/04/25 05:13:42;;;;;;;6.77;3.20;;;;;;;;;;10328935;28;20093;-66
2021/04/25 05:18:43;;;;;;;7.53;3.53;;;7.00;88.20;;;;;;10334075;28;20882;-65
2021/04/25 05:23:45;;;;;;;13.05;4.00;;;6.70;87.60;;;;;;10350390;28;20120;-65
2021/04/25 05:28:47;;;;;;;14.38;3.58;;;6.90;86.30;;;;;;10335024;28;20134;-65
2021/04/25 05:33:48;;;;;;;6.43;3.40;;;6.80;85.40;;;;;;10342136;28;20141;-67
2021/04/25 05:38:50;;;;;;;9.50;3.58;;;7.10;83.70;;;;;;10338067;28;20124;-66
2021/04/25 05:43:51;;;;;;;6.57;3.47;;;7.30;82.90;;;;;;10346334;28;20040;-67
2021/04/25 05:48:53;;;;;;;7.10;3.15;;;7.10;82.70;;;;;;10334070;28;20046;-67
2021/04/25 05:53:55;;;;;;;10.13;2.65;;;7.20;76.00;;;;;;10332080;28;20129;-65
2021/04/25 05:58:56;;;;;;;8.68;3.10;;;7.50;81.10;;;;;;10344590;28;20058;-65
2021/04/25 06:03:57;;;;;;;4.15;2.22;;;7.40;74.30;;;;;;10332647;28;20137;-66
2021/04/25 06:09:00;;;;;;;7.03;2.67;;;7.50;73.80;;;;;;10332457;28;20050;-65
2021/04/25 06:14:04;;;;;;;6.20;2.53;;;7.60;73.80;;;;;;10344815;28;20065;-66
2021/04/25 06:19:06;;;;;;;10.77;3.72;;;7.70;73.70;;;;;;10328100;28;20046;-66
2021/04/25 06:24:09;;;;;;;9.45;3.30;;;7.80;73.70;;;;;;10332586;28;20497;-66
2021/04/25 06:29:10;;;;;;;8.73;2.53;;;8.20;79.40;;;;;;10336892;28;20067;-65
2021/04/25 06:34:12;;;;;;;7.05;3.35;;;8.10;72.80;;;;;;10331973;28;20141;-66
2021/04/25 06:39:14;;;;;;;13.38;3.60;;;8.10;72.50;;;;;;10330636;28;20153;-66
2021/04/25 06:44:15;;;;;;;13.43;3.50;;;8.30;71.60;;;;;;10330189;28;20217;-66
2021/04/25 06:49:16;;;;;;;9.43;3.60;;;8.40;70.80;;;;;;10339101;28;20141;-65
2021/04/25 06:54:19;;;;;;;18.15;3.40;;;8.50;75.20;;;;;;10329053;28;20089;-66
2021/04/25 06:59:20;;;;;;;6.93;2.93;;;8.60;68.90;;;;;;10340310;28;20473;-66
2021/04/25 07:04:21;;;;;;;9.88;3.00;;;8.80;68.30;;;;;;10329600;28;20479;-65
2021/04/25 07:09:23;;;;;;;11.27;3.20;;;8.90;66.90;;;;;;10334156;28;20183;-66
2021/04/25 07:14:25;;;;;;;11.60;2.60;;;9.10;66.50;;;;;;10327291;28;20068;-66
2021/04/25 07:19:28;;;;;;;9.35;3.00;;;9.30;65.20;;;;;;10325413;28;20081;-65
2021/04/25 07:24:30;;;;;;;5.03;2.05;;;10.00;67.00;;;;;;10328333;28;20592;-65
2021/04/25 07:29:31;;;;;;;14.63;2.23;;;10.00;61.40;;;;;;10326441;28;20133;-66
2021/04/25 07:34:33;;;;;;;5.22;2.55;;;10.10;60.70;;;;;;10326417;28;20058;-66
2021/04/25 07:39:36;;;;;;;11.02;1.67;;;10.40;60.00;;;;;;10329959;28;20050;-65
2021/04/25 07:44:41;;;;;;;8.13;1.40;;;12.00;58.30;;;;;;10328088;28;20133;-66
2021/04/25 07:49:42;;;;;;;6.20;1.55;;;11.00;56.90;;;;;;10327789;28;20054;-65
2021/04/25 07:54:44;;;;;;;9.80;1.60;;;11.00;56.30;;;;;;10327249;28;20145;-65
2021/04/25 07:59:46;;;;;;;4.73;1.40;;;10.80;56.40;;;;;;10327592;28;20133;-66
2021/04/25 08:04:48;;;;;;;7.75;1.30;;;10.80;57.60;;;;;;10323088;28;20054;-66
2021/04/25 08:09:50;;;;;;;10.07;1.77;;;11.20;57.00;;;;;;10325802;28;20048;-65
2021/04/25 08:14:52;;;;;;;5.27;1.50;;;11.10;60.20;;;;;;10324343;28;20085;-65
2021/04/25 08:19:53;;;;;;;6.18;1.40;;;11.50;55.30;;;;;;10321264;28;20050;-64
2021/04/25 08:24:56;;;;;;;11.63;2.95;;;11.40;55.60;;;;;;10328093;28;20085;-65
2021/04/25 08:29:57;;;;;;;12.85;1.98;;;11.60;55.40;;;;;;10323128;28;20059;-65
2021/04/25 08:34:58;;;;;;;8.25;1.48;;;12.00;54.60;;;;;;10322087;28;20050;-66
2021/04/25 08:40:00;;;;;;;5.38;1.40;;;12.10;53.40;;;;;;10321412;28;20053;-65
2021/04/25 08:45:03;;;;;;;3.60;1.80;;;12.40;52.00;;;;;;10323520;28;20058;-66
2021/04/25 08:50:05;;;;;;;6.33;1.60;;;12.40;51.40;;;;;;10334751;28;20125;-65
2021/04/25 08:55:08;;;;;;;6.93;1.50;;;12.70;51.50;;;;;;10337464;28;20892;-64
2021/04/25 09:00:11;;;;;;;5.18;1.60;;;13.50;49.70;;;;;;10332484;28;20050;-65
2021/04/25 09:05:13;;;;;;;8.27;1.45;;;14.20;48.30;;;;;;10333237;28;20065;-65
2021/04/25 09:10:15;;;;;;;7.72;1.67;;;15.30;44.00;;;;;;10330981;28;20090;-66
2021/04/25 09:15:29;;;;;;;11.30;1.83;;;15.80;42.70;;;;;;10345269;28;20066;-65
2021/04/25 09:20:37;;;;;;;4.38;2.05;;;15.50;41.40;;;;;;10330956;28;20050;-64
2021/04/25 09:25:52;;;;;;;11.13;2.65;;;15.30;43.00;;;;;;10330654;28;20050;-63
2021/04/25 09:30:58;;;;;;;6.70;1.80;;;15.10;42.90;;;;;;10330328;28;20050;-66
2021/04/25 09:36:00;;;;;;;7.97;1.90;;;15.30;43.10;;;;;;10319372;28;20410;-63
2021/04/25 09:41:02;;;;;;;;;;;16.80;39.60;;;;;;10317871;28;20418;-65
2021/04/25 09:46:03;;;;;;;6.60;1.60;;;20.60;33.70;;;;;;10316813;28;20012;-65
2021/04/25 09:51:13;;;;;;;6.13;1.33;;;22.70;29.80;;;;;;10321103;28;20144;-67
2021/04/25 09:56:16;;;;;;;6.53;1.52;;;23.20;28.90;;;;;;10321622;28;20046;-66
2021/04/25 10:01:25;;;;;;;5.70;1.40;;;22.00;29.50;;;;;;10316929;28;20046;-66
2021/04/25 10:06:29;;;;;;;7.28;1.42;;;19.80;30.90;;;;;;10319355;28;20832;-66
2021/04/25 10:11:33;;;;;;;7.78;1.85;;;18.50;32.90;;;;;;10317608;28;20474;-67
2021/04/25 10:16:34;;;;;;;5.72;1.30;;;17.70;34.80;;;;;;10320421;28;20108;-65
2021/04/25 10:21:36;;;;;;;5.80;1.40;;;18.10;34.30;;;;;;10320557;28;20141;-64
2021/04/25 10:26:41;;;;;;;5.50;1.63;;;17.30;36.30;;;;;;10315306;28;20046;-65
2021/04/25 10:31:44;;;;;;;16.02;1.63;;;18.90;37.60;;;;;;10318201;28;20149;-66
2021/04/25 10:37:04;;;;;;;11.18;1.60;;;16.90;38.50;;;;;;10312322;28;20058;-66
2021/04/25 10:42:32;;;;;;;5.68;1.23;;;16.40;39.30;;;;;;10316380;28;20639;-66
2021/04/25 10:47:35;;;;;;;11.35;1.85;;;16.10;40.10;;;;;;10316497;28;20058;-64
2021/04/25 10:52:37;;;;;;;7.55;1.70;;;16.10;40.40;;;;;;10541788;23;20050;-63
2021/04/25 10:58:12;;;;;;;8.15;1.63;;;16.00;40.70;;;;;;10274595;28;20426;-65
2021/04/25 11:03:34;;;;;;;4.15;1.45;;;15.90;41.50;;;;;;10275856;28;20050;-65
2021/04/25 11:08:38;;;;;;;;;;;16.00;41.60;;;;;;10273367;28;20518;-64
2021/04/25 11:13:43;;;;;;;7.05;1.55;;;16.20;41.10;;;;;;10277235;28;19926;-66
2021/04/25 11:18:51;;;;;;;5.95;1.80;;;16.30;41.00;;;;;;10271186;28;20051;-63
2021/04/25 11:23:52;;;;;;;5.47;1.73;;;15.80;41.60;;;;;;10275853;28;20074;-64
2021/04/25 11:28:54;;;;;;;7.28;1.50;;;15.60;42.30;;;;;;10276669;28;20082;-65
2021/04/25 11:33:56;;;;;;;9.30;1.50;;;15.40;43.40;;;;;;10275395;28;20063;-64
2021/04/25 11:38:57;;;;;;;7.55;1.63;;;15.20;43.80;;;;;;10276278;28;20054;-65
2021/04/25 11:43:59;;;;;;;5.50;1.45;;;15.60;43.40;;;;;;10275897;28;20089;-64
2021/04/25 11:49:02;;;;;;;4.78;1.30;;;15.40;43.80;;;;;;10276538;28;20101;-65
2021/04/25 11:54:18;;;;;;;8.00;1.98;;;15.30;43.60;;;;;;10274262;28;20074;-64
2021/04/25 11:59:21;;;;;;;5.53;1.58;;;15.50;43.00;;;;;;10273986;28;20161;-67
2021/04/25 12:04:43;;;;;;;9.30;1.88;;;15.80;46.30;;;;;;10274460;28;20146;-66
2021/04/25 12:09:44;;;;;;;8.90;2.05;;;17.30;43.70;;;;;;10282223;28;20106;-68
2021/04/25 12:14:46;;;;;;;2.58;0.90;;;15.60;42.40;;;;;;10274552;28;20062;-66
2021/04/25 12:19:48;;;;;;;10.68;1.30;;;15.90;41.20;;;;;;10275435;28;20112;-65
2021/04/25 12:24:55;;;;;;;9.20;1.73;;;15.90;43.20;;;;;;10274910;28;20113;-66
2021/04/25 12:29:58;;;;;;;7.90;2.05;;;15.60;47.40;;;;;;10271830;28;20145;-68
2021/04/25 12:35:02;;;;;;;5.18;1.40;;;16.20;47.50;;;;;;10276119;28;20097;-67
2021/04/25 12:40:05;;;;;;;4.20;1.73;;;16.20;47.90;;;;;;10272156;28;20058;-65
2021/04/25 12:45:27;;;;;;;8.20;1.77;;;15.90;46.90;;;;;;10273779;28;20491;-67
2021/04/25 12:50:30;;;;;;;6.82;1.60;;;16.10;43.60;;;;;;10271073;28;20059;-66
2021/04/25 12:55:32;;;;;;;6.50;1.15;;;16.30;44.40;;;;;;10272737;28;20864;-64
2021/04/25 13:00:33;;;;;;;5.82;1.02;;;16.00;43.90;;;;;;10273474;28;20049;-66
2021/04/25 13:05:53;;;;;;;4.27;1.20;;;16.00;43.40;;;;;;10272090;28;20043;-65
2021/04/25 13:10:54;;;;;;;5.03;1.30;;;16.00;42.40;;;;;;10271982;28;20135;-66
2021/04/25 13:15:56;;;;;;;6.53;1.35;;;15.30;43.00;;;;;;10271803;28;20047;-65
2021/04/25 13:20:58;;;;;;;3.10;1.20;;;15.70;43.60;;;;;;10270359;28;20461;-67
2021/04/25 13:26:05;;;;;;;4.15;1.30;;;15.60;43.20;;;;;;10272102;28;20410;-65
2021/04/25 13:31:10;;;;;;;3.33;1.30;;;15.90;49.40;;;;;;10266460;28;20117;-66
2021/04/25 13:36:12;;;;;;;4.82;1.30;;;15.50;45.60;;;;;;10276148;28;20072;-67
2021/04/25 13:41:14;;;;;;;3.10;1.30;;;16.50;43.90;;;;;;10277903;28;20063;-69
2021/04/25 13:46:15;;;;;;;8.03;1.30;;;17.00;42.20;;;;;;10277508;28;20101;-66
2021/04/25 13:51:17;;;;;;;9.55;1.23;;;15.90;43.50;;;;;;10279594;28;20133;-66
2021/04/25 13:56:19;;;;;;;5.50;1.20;;;14.50;51.50;;;;;;10277363;28;20090;-69
2021/04/25 14:01:20;;;;;;;10.07;1.60;;;14.20;48.10;;;;;;10280925;28;20141;-67
2021/04/25 14:06:23;;;;;;;8.40;1.60;;;14.00;49.40;;;;;;10277534;28;20097;-64
2021/04/25 14:11:24;;;;;;;4.20;1.42;;;13.90;50.00;;;;;;10277296;28;20186;-67
2021/04/25 14:16:28;;;;;;;5.03;1.30;;;13.90;48.90;;;;;;10276915;28;20638;-65
2021/04/25 14:21:30;;;;;;;2.80;1.10;;;13.40;52.70;;;;;;10277809;28;20067;-66
2021/04/25 14:26:32;;;;;;;;;;;13.70;49.30;;;;;;10277079;28;20082;-64
2021/04/25 14:31:33;;;;;;;6.00;1.27;;;13.90;48.30;;;;;;10277907;28;19964;-65
2021/04/25 14:36:36;;;;;;;8.48;1.42;;;14.10;50.60;;;;;;10277807;28;20055;-64
2021/04/25 14:41:39;;;;;;;8.70;1.52;;;13.90;46.80;;;;;;10277032;28;20058;-65
2021/04/25 14:46:41;;;;;;;8.80;1.65;;;13.60;48.60;;;;;;10277498;28;20057;-65
2021/04/25 14:51:43;;;;;;;7.50;1.50;;;12.80;52.50;;;;;;10276222;28;20084;-67
2021/04/25 14:56:45;;;;;;;;;;;13.00;48.90;;;;;;10276351;28;20057;-70
2021/04/25 15:01:46;;;;;;;6.10;1.63;;;12.10;55.20;;;;;;10276384;28;19945;-69
2021/04/25 15:06:48;;;;;;;7.53;1.77;;;12.40;51.40;;;;;;10278724;28;20059;-68
2021/04/25 15:11:50;;;;;;;6.90;1.27;;;12.30;51.50;;;;;;10274258;28;20118;-69
2021/04/25 15:16:51;;;;;;;9.38;1.65;;;12.20;51.80;;;;;;10273602;28;20146;-68
2021/04/25 15:21:54;;;;;;;7.18;1.40;;;12.00;57.10;;;;;;10277411;28;20070;-67
2021/04/25 15:26:55;;;;;;;;;;;11.90;53.10;;;;;;10282244;28;20074;-66
2021/04/25 15:31:57;;;;;;;8.82;1.83;;;11.70;54.30;;;;;;10277970;28;20651;-69
2021/04/25 15:36:59;;;;;;;9.65;1.30;;;11.00;60.90;;;;;;10276284;28;20062;-68
2021/04/25 15:42:00;;;;;;;8.00;1.80;;;11.30;56.60;;;;;;10276209;28;20054;-67
2021/04/25 15:47:01;;;;;;;7.10;2.38;;;11.20;57.50;;;;;;10271503;28;20090;-68
2021/04/25 15:52:04;;;;;;;9.27;1.67;;;11.70;64.40;;;;;;10276368;28;20462;-67
2021/04/25 15:57:06;;;;;;;;;;;11.00;59.40;;;;;;10272901;28;20054;-69
2021/04/25 16:02:08;;;;;;;8.35;1.92;;;10.90;64.80;;;;;;10274983;28;19932;-68
2021/04/25 16:07:12;;;;;;;9.03;1.67;;;11.20;60.50;;;;;;10273538;28;20054;-68
2021/04/25 16:12:15;;;;;;;13.35;1.67;;;10.70;60.70;;;;;;10275897;28;20074;-68
2021/04/25 16:17:16;;;;;;;6.23;1.47;;;10.60;62.10;;;;;;10277340;28;20042;-67
2021/04/25 16:22:18;;;;;;;7.35;1.55;;;9.60;61.10;;;;;;10273154;28;21201;-67
2021/04/25 16:27:20;;;;;;;10.93;1.73;;;10.40;62.80;;;;;;10266705;28;20138;-68
2021/04/25 16:32:21;;;;;;;7.60;1.65;;;10.50;69.10;;;;;;10273607;28;20039;-69
2021/04/25 16:37:23;;;;;;;9.73;1.80;;;10.30;63.80;;;;;;10272295;28;20430;-67
2021/04/25 16:42:25;;;;;;;10.10;1.40;;;10.30;64.30;;;;;;10273856;28;20050;-66
2021/04/25 16:47:27;;;;;;;14.07;1.83;;;10.10;65.60;;;;;;10269243;28;20216;-67
2021/04/25 16:52:29;;;;;;;11.97;2.03;;;10.00;65.90;;;;;;10267019;28;20054;-68
2021/04/25 16:57:31;;;;;;;4.37;1.20;;;9.70;67.90;;;;;;10270146;28;20063;-68
2021/04/25 17:02:33;;;;;;;7.03;1.40;;;9.50;69.00;;;;;;10276242;28;20090;-68
2021/04/25 17:07:36;;;;;;;8.35;1.40;;;9.30;70.20;;;;;;10271914;28;20534;-68
2021/04/25 17:12:37;;;;;;;;;;;9.10;70.80;;;;;;10283285;28;20130;-68
2021/04/25 17:17:39;;;;;;;10.60;1.60;;;9.00;77.60;;;;;;10278911;28;20106;-66
2021/04/25 17:22:41;;;;;;;10.63;2.13;;;8.80;71.70;;;;;;10272214;28;20051;-65
2021/04/25 17:27:44;;;;;;;9.30;2.00;;;8.80;73.80;;;;;;10278417;28;20576;-67
2021/04/25 17:32:46;;;;;;;9.55;1.90;;;8.20;81.20;;;;;;10274285;28;20137;-67
2021/04/25 17:37:48;;;;;;;5.03;1.60;;;8.40;75.70;;;;;;10274934;28;20410;-67
2021/04/25 17:42:52;;;;;;;12.55;1.85;;;8.30;77.30;;;;;;10280447;28;20042;-66
2021/04/25 17:47:54;;;;;;;7.13;1.65;;;8.00;83.90;;;;;;10279173;28;20062;-69
2021/04/25 17:52:58;;;;;;;12.88;1.73;;;8.00;78.40;;;;;;10280441;28;20042;-69
2021/04/25 17:57:59;;;;;;;;;;;8.00;79.20;;;;;;10279139;28;20576;-67
2021/04/25 18:03:00;;;;;;;17.02;3.80;;;7.70;86.70;;;;;;10277270;28;20013;-69
2021/04/25 18:08:02;;;;;;;9.35;1.58;;;7.70;80.90;;;;;;10272412;28;20129;-68
2021/04/25 18:13:05;;;;;;;11.68;1.60;;;7.70;81.50;;;;;;10277957;28;20499;-65
2021/04/25 18:18:06;;;;;;;7.53;2.30;;;7.60;82.40;;;;;;10277199;28;20047;-66
2021/04/25 18:23:09;;;;;;;12.60;2.67;;;7.40;89.80;;;;;;10276619;28;20143;-67
2021/04/25 18:28:11;;;;;;;5.10;1.98;;;7.00;90.10;;;;;;10277323;28;20542;-66
2021/04/25 18:33:13;;;;;;;10.85;1.92;;;;;;;;;;10271252;28;20463;-64
2021/04/25 18:38:15;;;;;;;9.38;1.85;;;7.10;90.70;;;;;;10272460;28;20929;-63
2021/04/25 18:43:18;;;;;;;19.60;2.10;;;6.90;91.00;;;;;;10273584;28;20087;-64
2021/04/25 18:48:20;;;;;;;7.70;2.00;;;6.80;86.90;;;;;;10276811;28;20481;-63
2021/04/25 18:53:23;;;;;;;18.30;2.90;;;7.00;92.00;;;;;;10193421;28;20062;-64
2021/04/25 18:58:25;;;;;;;7.40;1.85;;;6.60;92.40;;;;;;10124091;28;20062;-64
2021/04/25 19:03:26;;;;;;;11.05;1.75;;;6.50;89.00;;;;;;10110712;28;20082;-64
2021/04/25 19:08:31;;;;;;;7.45;1.48;;;6.10;92.10;;;;;;10109839;28;20055;-63
2021/04/25 19:13:34;;;;;;;10.73;2.10;;;6.30;92.20;;;;;;10108793;28;20047;-64
2021/04/25 19:18:37;;;;;;;6.85;2.05;;;6.10;92.50;;;;;;10109844;28;20058;-66
2021/04/25 19:23:40;;;;;;;13.15;1.90;;;6.10;92.90;;;;;;10106714;28;20054;-63
2021/04/25 19:28:43;;;;;;;6.68;1.73;;;6.10;88.00;;;;;;10106912;28;20679;-65
2021/04/25 19:33:46;;;;;;;9.43;1.60;;;6.00;85.00;;;;;;10107524;28;20059;-65
2021/04/25 19:38:49;;;;;;;9.13;1.55;;;6.00;83.40;;;;;;10109375;28;21506;-65
2021/04/25 19:43:51;;;;;;;6.70;1.50;;;6.10;89.70;;;;;;10109824;28;21270;-65
2021/04/25 19:48:52;;;;;;;9.38;1.85;;;5.90;90.10;;;;;;10108045;28;20065;-63
2021/04/25 19:53:54;;;;;;;8.48;2.25;;;5.80;83.10;;;;;;10105629;28;20087;-64
2021/04/25 19:58:55;;;;;;;8.40;1.75;;;5.70;89.60;;;;;;10110905;28;20842;-65
2021/04/25 20:03:58;;;;;;;7.47;2.20;;;;;;;;;;10109922;28;22162;-65
2021/04/25 20:09:01;;;;;;;5.40;1.52;;;5.50;82.60;;;;;;10108568;28;20061;-66
2021/04/25 20:14:02;;;;;;;8.77;2.33;;;;;;;;;;10105494;28;20733;-64
2021/04/25 20:19:04;;;;;;;10.98;2.10;;;5.60;83.80;;;;;;10106459;28;20177;-65
2021/04/25 20:24:07;;;;;;;9.80;1.77;;;5.50;84.10;;;;;;10107949;28;20050;-66
2021/04/25 20:29:09;;;;;;;6.47;1.70;;;;;;;;;;10102988;28;20039;-64
2021/04/25 20:34:11;;;;;;;13.63;1.50;;;;;;;;;;10104775;28;20906;-65
2021/04/25 20:39:13;;;;;;;10.73;1.73;;;5.20;90.60;;;;;;10107585;28;20687;-64
2021/04/25 20:44:14;;;;;;;8.57;2.07;;;5.10;90.70;;;;;;10117588;28;20165;-65
2021/04/25 20:49:16;;;;;;;15.45;1.85;;;;;;;;;;10114318;28;20050;-65
2021/04/25 20:54:19;;;;;;;6.75;1.55;;;5.20;85.60;;;;;;10116942;28;20067;-65
2021/04/25 20:59:21;;;;;;;8.77;1.60;;;;;;;;;;10119253;28;21386;-65
2021/04/25 21:04:23;;;;;;;9.65;1.75;;;;;;;;;;10117641;28;20043;-66
2021/04/25 21:09:25;;;;;;;9.55;1.75;;;5.00;86.00;;;;;;10116182;28;21492;-65
2021/04/25 21:14:27;;;;;;;8.43;1.23;;;;;;;;;;10114224;28;20051;-64
2021/04/25 21:19:28;;;;;;;7.80;2.00;;;4.90;86.00;;;;;;10115752;28;20060;-65
2021/04/25 21:24:30;;;;;;;7.03;1.15;;;4.90;91.30;;;;;;10114902;28;22230;-64
2021/04/25 21:29:32;;;;;;;5.93;1.67;;;4.60;91.40;;;;;;10118393;28;20100;-64
2021/04/25 21:34:33;;;;;;;3.83;1.33;;;4.30;91.40;;;;;;10114045;28;20054;-64
2021/04/25 21:39:36;;;;;;;4.07;0.90;;;4.70;91.40;;;;;;10113251;28;20114;-65
2021/04/25 21:44:37;;;;;;;4.38;1.30;;;;;;;;;;10103423;28;20177;-65
2021/04/25 21:49:39;;;;;;;6.03;1.50;;;4.50;91.60;;;;;;10113678;28;20051;-64
2021/04/25 21:54:41;;;;;;;7.15;1.27;;;4.50;87.00;;;;;;10116653;28;21787;-64
2021/04/25 21:59:42;;;;;;;6.15;1.20;;;;;;;;;;10116906;28;20051;-64
2021/04/25 22:04:44;;;;;;;5.95;1.02;;;;;;;;;;10114534;28;20976;-65
2021/04/25 22:09:46;;;;;;;2.05;0.90;;;4.40;87.50;;;;;;10116656;28;21764;-66
2021/04/25 22:14:48;;;;;;;7.82;1.58;;;4.40;87.70;;;;;;10112322;28;20051;-65
2021/04/25 22:19:49;;;;;;;3.95;1.42;;;4.50;92.20;;;;;;10112808;28;20059;-63
2021/04/25 22:24:51;;;;;;;3.42;0.93;;;4.30;88.40;;;;;;10108642;28;20050;-64
2021/04/25 22:29:53;;;;;;;4.03;1.08;;;4.40;92.50;;;;;;10113100;28;20042;-63
2021/04/25 22:34:54;;;;;;;6.28;1.40;;;4.10;92.60;;;;;;10115390;28;20059;-64
2021/04/25 22:39:56;;;;;;;4.25;1.40;;;4.10;92.70;;;;;;10112888;28;20435;-65
2021/04/25 22:44:57;;;;;;;11.68;1.25;;;4.10;89.40;;;;;;10117093;28;20061;-65
2021/04/25 22:49:59;;;;;;;7.72;1.60;;;;;;;;;;10116967;28;20118;-64
2021/04/25 22:55:01;;;;;;;4.70;1.20;;;3.80;90.00;;;;;;10112303;28;20095;-65
2021/04/25 23:00:04;;;;;;;3.67;0.98;;;3.90;90.20;;;;;;10114309;28;20050;-65
2021/04/25 23:05:07;;;;;;;5.32;1.77;;;3.60;93.40;;;;;;10115970;28;20050;-64
2021/04/25 23:10:11;;;;;;;3.08;0.95;;;3.80;90.50;;;;;;10110000;28;20054;-65
2021/04/25 23:15:14;;;;;;;2.58;1.15;;;3.60;93.80;;;;;;10112528;28;20089;-64
2021/04/25 23:20:17;;;;;;;3.57;1.33;;;3.60;90.50;;;;;;10112599;28;22392;-64
2021/04/25 23:25:22;;;;;;;7.82;1.50;;;3.90;94.00;;;;;;10113144;28;20141;-64
2021/04/25 23:30:23;;;;;;;4.65;1.40;;;3.40;93.90;;;;;;10112669;28;20753;-64
2021/04/25 23:35:25;;;;;;;3.40;1.23;;;;;;;;;;10111705;28;21661;-64
2021/04/25 23:40:28;;;;;;;8.68;1.25;;;3.30;94.30;;;;;;10110399;28;20050;-65
2021/04/25 23:45:29;;;;;;;10.90;1.30;;;3.50;93.40;;;;;;10110090;28;20055;-64
2021/04/25 23:50:30;;;;;;;3.50;0.98;;;3.20;94.60;;;;;;10105776;28;20419;-64
2021/04/25 23:55:32;;;;;;;2.65;1.27;;;3.20;94.70;;;;;;10104154;28;20055;-65
